createdAt,value
2018-02-24T00:01:42.724Z,93.90
2018-02-24T00:04:10.374Z,93.90
2018-02-24T00:06:38.684Z,93.90
2018-02-24T00:09:06.198Z,93.90
2018-02-24T00:11:33.712Z,93.90
2018-02-24T00:14:01.240Z,93.80
2018-02-24T00:16:29.517Z,94.10
2018-02-24T00:18:57.829Z,93.90
2018-02-24T00:21:25.366Z,93.90
2018-02-24T00:23:53.668Z,94.20
2018-02-24T00:26:21.216Z,94.10
2018-02-24T00:28:49.500Z,94.20
2018-02-24T00:31:17.801Z,94.60
2018-02-24T00:33:45.316Z,94.60
2018-02-24T00:36:12.836Z,94.50
2018-02-24T00:38:40.383Z,94.60
2018-02-24T00:41:07.888Z,94.60
2018-02-24T00:43:35.404Z,94.60
2018-02-24T00:46:02.949Z,94.70
2018-02-24T00:48:31.233Z,94.30
2018-02-24T00:50:59.511Z,94.40
2018-02-24T00:53:27.812Z,94.50
2018-02-24T00:55:55.336Z,94.50
2018-02-24T00:58:22.845Z,95.00
2018-02-24T01:00:50.392Z,95.00
2018-02-24T01:03:18.666Z,95.00
2018-02-24T01:05:46.963Z,95.60
2018-02-24T01:08:14.476Z,95.60
2018-02-24T01:10:42.002Z,95.50
2018-02-24T01:13:09.528Z,95.60
2018-02-24T01:15:37.804Z,95.40
2018-02-24T01:18:05.322Z,95.30
2018-02-24T01:20:32.873Z,95.50
2018-02-24T01:23:00.385Z,95.50
2018-02-24T01:25:27.901Z,95.70
2018-02-24T01:27:55.443Z,95.70
2018-02-24T01:30:23.732Z,95.70
2018-02-24T01:32:51.250Z,95.70
2018-02-24T01:35:18.822Z,95.90
2018-02-24T01:37:46.333Z,96.10
2018-02-24T01:40:13.852Z,96.00
2018-02-24T01:42:41.401Z,96.30
2018-02-24T01:45:08.925Z,96.30
2018-02-24T01:47:36.456Z,96.30
2018-02-24T01:50:04.750Z,96.40
2018-02-24T01:52:32.267Z,96.40
2018-02-24T01:54:59.784Z,96.50
2018-02-24T01:57:27.319Z,96.80
2018-02-24T01:59:55.596Z,97.20
2018-02-24T02:02:23.910Z,97.20
2018-02-24T02:04:51.440Z,96.80
2018-02-24T02:07:18.961Z,96.70
2018-02-24T02:09:46.509Z,96.50
2018-02-24T02:12:14.038Z,96.70
2018-02-24T02:14:42.337Z,96.90
2018-02-24T02:17:09.875Z,96.90
2018-02-24T02:19:37.388Z,96.70
2018-02-24T02:24:39.565Z,97.00
2018-02-24T02:27:07.077Z,96.90
2018-02-24T02:29:34.597Z,97.20
2018-02-24T02:32:02.145Z,97.50
2018-02-24T02:34:29.719Z,97.50
2018-02-24T02:36:57.234Z,97.60
2018-02-24T02:39:24.768Z,97.70
2018-02-24T02:41:52.286Z,97.90
2018-02-24T02:44:20.576Z,98.10
2018-02-24T02:46:48.106Z,98.10
2018-02-24T02:49:15.630Z,98.20
2018-02-24T02:51:43.176Z,98.10
2018-02-24T02:54:11.649Z,98.50
2018-02-24T02:56:39.165Z,98.10
2018-02-24T02:59:06.689Z,98.30
2018-02-24T03:01:34.350Z,98.40
2018-02-24T03:04:01.868Z,98.40
2018-02-24T03:06:29.387Z,98.50
2018-02-24T03:08:56.933Z,98.40
2018-02-24T03:11:24.444Z,98.50
2018-02-24T03:13:51.957Z,98.50
2018-02-24T03:16:19.488Z,98.50
2018-02-24T03:18:47.004Z,98.50
2018-02-24T03:21:14.521Z,98.50
2018-02-24T03:23:42.935Z,98.70
2018-02-24T03:26:10.456Z,98.70
2018-02-24T03:28:37.973Z,98.70
2018-02-24T03:31:05.502Z,98.90
2018-02-24T03:33:33.812Z,98.80
2018-02-24T03:36:01.331Z,98.80
2018-02-24T03:38:28.885Z,99.00
2018-02-24T03:40:56.399Z,98.70
2018-02-24T03:43:23.918Z,98.80
2018-02-24T03:45:54.216Z,98.50
2018-02-24T03:48:21.728Z,98.80
2018-02-24T03:50:50.018Z,98.60
2018-02-24T03:53:18.315Z,98.50
2018-02-24T03:55:45.836Z,98.50
2018-02-24T03:58:13.358Z,98.40
2018-02-24T04:00:40.924Z,98.60
2018-02-24T04:03:08.437Z,98.50
2018-02-24T04:05:36.721Z,99.00
2018-02-24T04:08:05.018Z,98.50
2018-02-24T04:10:32.530Z,98.50
2018-02-24T04:13:00.047Z,98.50
2018-02-24T04:15:27.592Z,98.60
2018-02-24T04:17:55.884Z,98.70
2018-02-24T04:20:24.169Z,98.80
2018-02-24T04:22:51.713Z,98.80
2018-02-24T04:25:19.993Z,98.20
2018-02-24T04:27:48.280Z,98.20
2018-02-24T04:30:16.600Z,98.20
2018-02-24T04:32:44.125Z,98.20
2018-02-24T04:35:12.409Z,98.30
2018-02-24T04:37:40.733Z,98.30
2018-02-24T04:40:08.249Z,98.30
2018-02-24T04:42:36.534Z,98.50
2018-02-24T04:45:04.853Z,97.90
2018-02-24T04:47:32.369Z,97.90
2018-02-24T04:50:00.645Z,97.80
2018-02-24T04:52:28.975Z,97.70
2018-02-24T04:54:56.484Z,97.70
2018-02-24T04:57:24.005Z,97.60
2018-02-24T04:59:51.536Z,97.60
2018-02-24T05:02:19.058Z,97.70
2018-02-24T05:04:46.580Z,97.80
2018-02-24T05:07:14.136Z,97.90
2018-02-24T05:09:41.655Z,97.90
2018-02-24T05:12:09.188Z,97.80
2018-02-24T05:14:36.743Z,97.80
2018-02-24T05:17:04.264Z,97.80
2018-02-24T05:19:32.541Z,97.90
2018-02-24T05:22:00.845Z,98.20
2018-02-24T05:24:28.367Z,98.10
2018-02-24T05:26:55.894Z,97.90
2018-02-24T05:29:23.438Z,98.00
2018-02-24T05:31:50.960Z,98.00
2018-02-24T05:34:18.503Z,97.90
2018-02-24T05:36:46.146Z,98.10
2018-02-24T05:39:13.667Z,98.10
2018-02-24T05:41:41.190Z,98.20
2018-02-24T05:44:08.732Z,98.00
2018-02-24T05:46:36.257Z,98.30
2018-02-24T05:49:03.770Z,98.20
2018-02-24T05:51:31.305Z,98.70
2018-02-24T05:53:58.814Z,99.30
2018-02-24T05:56:26.333Z,99.20
2018-02-24T05:58:53.890Z,99.60
2018-02-24T06:01:22.172Z,99.60
2018-02-24T06:03:49.693Z,99.60
2018-02-24T06:06:17.229Z,99.90
2018-02-24T06:08:44.757Z,99.90
2018-02-24T06:11:13.045Z,99.90
2018-02-24T06:13:40.575Z,99.90
2018-02-24T06:16:08.872Z,99.90
2018-02-24T06:18:37.148Z,99.90
2018-02-24T06:21:05.468Z,99.90
2018-02-24T06:23:32.991Z,99.90
2018-02-24T06:26:01.273Z,99.90
2018-02-24T06:28:29.592Z,99.90
2018-02-24T06:30:57.101Z,99.90
2018-02-24T06:33:24.624Z,99.90
2018-02-24T06:35:52.178Z,99.90
2018-02-24T06:38:19.693Z,99.90
2018-02-24T06:40:47.208Z,99.90
2018-02-24T06:43:14.747Z,99.90
2018-02-24T06:45:43.022Z,99.90
2018-02-24T06:48:11.295Z,99.90
2018-02-24T06:50:39.605Z,99.90
2018-02-24T06:53:07.112Z,99.90
2018-02-24T06:55:34.661Z,99.90
2018-02-24T06:58:02.285Z,99.90
2018-02-24T07:00:30.576Z,99.90
2018-02-24T07:02:58.097Z,99.90
2018-02-24T07:05:25.668Z,99.90
2018-02-24T07:07:53.956Z,99.90
2018-02-24T07:10:22.248Z,99.90
2018-02-24T07:12:50.543Z,99.90
2018-02-24T07:15:18.065Z,99.90
2018-02-24T07:17:45.600Z,99.90
2018-02-24T07:20:13.145Z,99.90
2018-02-24T07:22:40.654Z,99.90
2018-02-24T07:25:08.173Z,99.90
2018-02-24T07:27:35.708Z,99.90
2018-02-24T07:30:03.987Z,99.90
2018-02-24T07:32:32.270Z,99.90
2018-02-24T07:35:00.577Z,99.90
2018-02-24T07:37:28.137Z,99.90
2018-02-24T07:39:55.652Z,99.90
2018-02-24T07:42:23.272Z,99.90
2018-02-24T07:44:51.572Z,99.90
2018-02-24T07:47:19.087Z,99.90
2018-02-24T07:49:47.487Z,99.90
2018-02-24T07:52:15.030Z,99.90
2018-02-24T07:54:43.316Z,99.90
2018-02-24T07:57:11.644Z,99.80
2018-02-24T07:59:39.181Z,99.70
2018-02-24T08:02:06.719Z,99.70
2018-02-24T08:04:35.032Z,99.90
2018-02-24T08:07:02.596Z,99.90
2018-02-24T08:09:30.140Z,99.70
2018-02-24T08:11:57.720Z,99.80
2018-02-24T08:14:25.289Z,99.50
2018-02-24T08:16:52.830Z,99.60
2018-02-24T08:19:20.416Z,99.70
2018-02-24T08:21:47.968Z,99.50
2018-02-24T08:24:15.541Z,98.90
2018-02-24T08:26:43.933Z,99.10
2018-02-24T08:29:11.511Z,99.10
2018-02-24T08:31:39.148Z,98.80
2018-02-24T08:34:06.851Z,98.70
2018-02-24T08:36:34.422Z,99.60
2018-02-24T08:39:01.976Z,98.90
2018-02-24T08:41:29.818Z,98.90
2018-02-24T08:43:57.398Z,98.30
2018-02-24T08:46:24.952Z,98.90
2018-02-24T08:48:52.585Z,98.90
2018-02-24T08:51:20.902Z,98.50
2018-02-24T08:53:48.426Z,98.50
2018-02-24T08:56:16.758Z,98.60
2018-02-24T08:58:44.314Z,98.60
2018-02-24T09:01:11.871Z,98.20
2018-02-24T09:03:39.565Z,98.40
2018-02-24T09:06:07.112Z,97.70
2018-02-24T09:08:34.722Z,97.70
2018-02-24T09:11:03.073Z,97.00
2018-02-24T09:13:30.621Z,97.00
2018-02-24T09:15:58.167Z,96.80
2018-02-24T09:18:25.716Z,96.70
2018-02-24T09:20:54.041Z,96.40
2018-02-24T09:23:21.588Z,96.30
2018-02-24T09:25:49.142Z,96.00
2018-02-24T09:28:16.683Z,96.60
2018-02-24T09:30:45.003Z,95.90
2018-02-24T09:33:12.573Z,95.90
2018-02-24T09:35:40.102Z,95.90
2018-02-24T09:38:07.648Z,95.20
2018-02-24T09:40:36.090Z,95.10
2018-02-24T09:43:03.681Z,95.00
2018-02-24T09:45:32.017Z,95.40
2018-02-24T09:47:59.617Z,95.40
2018-02-24T09:50:27.977Z,97.60
2018-02-24T09:52:55.520Z,97.80
2018-02-24T09:55:23.148Z,96.40
2018-02-24T09:57:51.478Z,96.90
2018-02-24T10:00:19.086Z,96.90
2018-02-24T10:02:46.755Z,99.90
2018-02-24T10:05:15.298Z,98.70
2018-02-24T10:07:44.130Z,95.20
2018-02-24T10:10:12.482Z,93.60
2018-02-24T10:12:40.065Z,93.50
2018-02-24T10:15:07.689Z,93.90
2018-02-24T10:17:35.311Z,92.60
2018-02-24T10:20:02.955Z,92.40
2018-02-24T10:22:30.562Z,93.10
2018-02-24T10:24:58.916Z,96.80
2018-02-24T10:27:27.258Z,97.00
2018-02-24T10:29:54.866Z,97.00
2018-02-24T10:32:23.187Z,97.40
2018-02-24T10:34:50.887Z,97.40
2018-02-24T10:37:18.479Z,96.60
2018-02-24T10:39:46.053Z,95.60
2018-02-24T10:42:14.421Z,94.60
2018-02-24T10:44:41.979Z,94.30
2018-02-24T10:47:09.500Z,94.30
2018-02-24T10:49:37.153Z,93.90
2018-02-24T10:52:04.700Z,94.30
2018-02-24T10:54:33.040Z,94.40
2018-02-24T10:57:00.703Z,94.40
2018-02-24T10:59:28.230Z,94.00
2018-02-24T11:01:55.752Z,93.50
2018-02-24T11:04:23.320Z,94.10
2018-02-24T11:06:50.862Z,93.80
2018-02-24T11:09:18.385Z,91.80
2018-02-24T11:11:45.948Z,92.30
2018-02-24T11:14:13.492Z,94.40
2018-02-24T11:16:41.800Z,99.90
2018-02-24T11:19:09.347Z,99.90
2018-02-24T11:21:37.664Z,99.60
2018-02-24T11:24:05.261Z,99.20
2018-02-24T11:26:32.900Z,97.70
2018-02-24T11:29:00.435Z,97.00
2018-02-24T11:31:27.988Z,96.30
2018-02-24T11:33:55.561Z,96.30
2018-02-24T11:36:23.083Z,97.10
2018-02-24T11:38:50.673Z,95.90
2018-02-24T11:41:19.002Z,96.10
2018-02-24T11:43:46.564Z,96.00
2018-02-24T11:46:14.109Z,95.50
2018-02-24T11:48:41.679Z,94.00
2018-02-24T11:51:09.221Z,93.30
2018-02-24T11:53:36.797Z,92.20
2018-02-24T11:56:04.375Z,91.70
2018-02-24T11:58:31.888Z,94.00
2018-02-24T12:01:00.196Z,95.10
2018-02-24T12:03:27.753Z,95.00
2018-02-24T12:05:55.291Z,95.00
2018-02-24T12:08:22.876Z,95.00
2018-02-24T12:10:50.468Z,94.10
2018-02-24T12:13:18.069Z,93.90
2018-02-24T12:15:45.613Z,94.60
2018-02-24T12:18:13.210Z,97.50
2018-02-24T12:20:40.757Z,99.80
2018-02-24T12:23:08.290Z,99.90
2018-02-24T12:25:35.954Z,99.80
2018-02-24T12:28:03.493Z,99.80
2018-02-24T12:30:31.799Z,97.80
2018-02-24T12:32:59.392Z,97.80
2018-02-24T12:35:27.057Z,97.70
2018-02-24T12:37:54.640Z,95.50
2018-02-24T12:40:22.202Z,93.70
2018-02-24T12:42:49.740Z,92.80
2018-02-24T12:45:17.522Z,91.50
2018-02-24T12:47:45.114Z,92.80
2018-02-24T12:50:13.414Z,92.30
2018-02-24T12:52:41.740Z,93.70
2018-02-24T12:55:09.345Z,93.70
2018-02-24T12:57:36.862Z,94.10
2018-02-24T13:00:04.396Z,95.30
2018-02-24T13:02:31.912Z,95.20
2018-02-24T13:04:59.438Z,95.80
2018-02-24T13:07:27.011Z,94.70
2018-02-24T13:09:54.537Z,95.20
2018-02-24T13:12:22.837Z,94.20
2018-02-24T13:14:50.488Z,94.20
2018-02-24T13:17:18.773Z,93.20
2018-02-24T13:19:46.298Z,93.20
2018-02-24T13:22:13.985Z,93.30
2018-02-24T13:24:42.501Z,93.70
2018-02-24T13:27:10.059Z,93.70
2018-02-24T13:29:37.607Z,91.30
2018-02-24T13:32:05.940Z,88.90
2018-02-24T13:34:33.466Z,88.80
2018-02-24T13:37:01.223Z,87.50
2018-02-24T13:39:29.619Z,90.20
2018-02-24T13:41:57.195Z,90.20
2018-02-24T13:44:24.802Z,90.60
2018-02-24T13:46:52.392Z,92.10
2018-02-24T13:49:20.738Z,93.80
2018-02-24T13:51:48.352Z,93.80
2018-02-24T13:54:16.878Z,94.40
2018-02-24T13:56:44.493Z,94.40
2018-02-24T13:59:12.825Z,97.20
2018-02-24T14:01:40.391Z,97.20
2018-02-24T14:04:07.975Z,97.90
2018-02-24T14:06:35.555Z,98.10
2018-02-24T14:09:03.138Z,98.50
2018-02-24T14:11:31.442Z,97.80
2018-02-24T14:13:59.052Z,97.80
2018-02-24T14:16:26.593Z,97.40
2018-02-24T14:18:54.144Z,95.00
2018-02-24T14:21:21.697Z,93.80
2018-02-24T14:23:49.230Z,93.60
2018-02-24T14:26:17.530Z,93.60
2018-02-24T14:28:45.101Z,93.60
2018-02-24T14:31:12.675Z,94.10
2018-02-24T14:33:40.233Z,95.70
2018-02-24T14:36:07.825Z,96.50
2018-02-24T14:38:35.374Z,96.00
2018-02-24T14:41:02.916Z,95.30
2018-02-24T14:43:30.518Z,94.80
2018-02-24T14:45:58.087Z,95.20
2018-02-24T14:48:26.403Z,95.90
2018-02-24T14:50:54.876Z,95.50
2018-02-24T14:53:22.417Z,95.50
2018-02-24T14:55:49.952Z,95.10
2018-02-24T14:58:17.502Z,95.10
2018-02-24T15:00:45.056Z,94.80
2018-02-24T15:03:13.364Z,93.70
2018-02-24T15:05:40.934Z,93.70
2018-02-24T15:08:08.467Z,93.50
2018-02-24T15:10:36.830Z,92.70
2018-02-24T15:13:04.408Z,92.70
2018-02-24T15:15:32.716Z,93.50
2018-02-24T15:18:00.267Z,93.50
2018-02-24T15:20:27.868Z,93.90
2018-02-24T15:22:55.418Z,94.40
2018-02-24T15:25:22.982Z,93.20
2018-02-24T15:27:50.567Z,92.60
2018-02-24T15:30:18.100Z,91.90
2018-02-24T15:32:45.692Z,92.10
2018-02-24T15:35:13.275Z,90.40
2018-02-24T15:37:40.843Z,90.50
2018-02-24T15:40:08.441Z,90.40
2018-02-24T15:42:36.021Z,90.80
2018-02-24T15:45:03.583Z,91.00
2018-02-24T15:47:31.128Z,91.20
2018-02-24T15:49:58.784Z,90.40
2018-02-24T15:52:27.110Z,90.30
2018-02-24T15:54:54.677Z,90.20
2018-02-24T15:57:22.255Z,90.40
2018-02-24T15:59:49.811Z,88.90
2018-02-24T16:02:18.182Z,90.50
2018-02-24T16:04:45.779Z,90.50
2018-02-24T16:07:13.318Z,89.30
2018-02-24T16:09:40.867Z,89.50
2018-02-24T16:12:08.426Z,89.30
2018-02-24T16:14:35.965Z,90.10
2018-02-24T16:17:04.256Z,88.60
2018-02-24T16:19:31.823Z,88.60
2018-02-24T16:21:59.416Z,88.40
2018-02-24T16:24:26.970Z,88.60
2018-02-24T16:26:54.576Z,88.80
2018-02-24T16:29:22.146Z,88.50
2018-02-24T16:31:49.701Z,90.10
2018-02-24T16:34:17.257Z,90.10
2018-02-24T16:36:44.794Z,89.30
2018-02-24T16:39:12.375Z,89.70
2018-02-24T16:41:39.918Z,90.10
2018-02-24T16:44:07.446Z,89.60
2018-02-24T16:46:35.755Z,90.20
2018-02-24T16:49:03.453Z,90.20
2018-02-24T16:51:31.126Z,90.00
2018-02-24T16:53:58.674Z,89.60
2018-02-24T16:56:26.253Z,89.00
2018-02-24T16:58:53.809Z,89.00
2018-02-24T17:01:21.333Z,88.40
2018-02-24T17:03:48.882Z,88.80
2018-02-24T17:06:17.204Z,87.80
2018-02-24T17:08:44.752Z,87.80
2018-02-24T17:11:12.322Z,87.90
2018-02-24T17:13:39.861Z,87.60
2018-02-24T17:16:07.416Z,88.50
2018-02-24T17:18:34.996Z,88.60
2018-02-24T17:21:02.597Z,90.20
2018-02-24T17:23:30.145Z,88.70
2018-02-24T17:25:57.721Z,88.20
2018-02-24T17:28:25.288Z,87.80
2018-02-24T17:30:52.904Z,87.80
2018-02-24T17:33:21.327Z,87.90
2018-02-24T17:35:48.878Z,87.90
2018-02-24T17:38:16.425Z,88.20
2018-02-24T17:40:44.040Z,87.90
2018-02-24T17:43:11.663Z,89.40
2018-02-24T17:45:39.425Z,87.90
2018-02-24T17:48:07.007Z,88.10
2018-02-24T17:50:34.561Z,87.40
2018-02-24T17:53:02.138Z,87.40
2018-02-24T17:55:29.724Z,87.80
2018-02-24T17:57:57.275Z,88.30
2018-02-24T18:00:24.842Z,88.40
2018-02-24T18:02:52.495Z,88.40
2018-02-24T18:05:20.043Z,86.60
2018-02-24T18:07:47.574Z,86.50
2018-02-24T18:10:15.146Z,87.30
2018-02-24T18:12:43.478Z,87.90
2018-02-24T18:15:11.038Z,87.90
2018-02-24T18:17:38.654Z,87.40
2018-02-24T18:20:06.963Z,88.00
2018-02-24T18:22:34.527Z,88.30
2018-02-24T18:25:02.093Z,88.20
2018-02-24T18:27:29.711Z,87.60
2018-02-24T18:29:57.273Z,87.80
2018-02-24T18:32:24.873Z,87.10
2018-02-24T18:34:53.196Z,87.20
2018-02-24T18:37:21.468Z,87.20
2018-02-24T18:39:49.139Z,90.20
2018-02-24T18:42:16.761Z,89.00
2018-02-24T18:44:45.114Z,88.00
2018-02-24T18:47:12.689Z,88.00
2018-02-24T18:49:40.328Z,89.90
2018-02-24T18:52:07.974Z,89.10
2018-02-24T18:54:35.604Z,87.80
2018-02-24T18:57:03.900Z,89.90
2018-02-24T18:59:32.224Z,89.10
2018-02-24T19:01:59.777Z,89.10
2018-02-24T19:04:27.314Z,89.50
2018-02-24T19:06:54.899Z,89.40
2018-02-24T19:09:22.425Z,89.40
2018-02-24T19:11:50.808Z,90.00
2018-02-24T19:14:19.180Z,90.70
2018-02-24T19:16:47.477Z,90.00
2018-02-24T19:19:15.855Z,90.40
2018-02-24T19:21:44.134Z,89.50
2018-02-24T19:24:12.481Z,90.30
2018-02-24T19:26:40.092Z,90.30
2018-02-24T19:29:07.711Z,90.20
2018-02-24T19:31:35.238Z,90.50
2018-02-24T19:34:02.923Z,90.60
2018-02-24T19:36:30.449Z,90.60
2018-02-24T19:38:58.787Z,90.50
2018-02-24T19:41:26.413Z,90.50
2018-02-24T19:43:53.951Z,90.50
2018-02-24T19:46:22.262Z,90.70
2018-02-24T19:48:49.825Z,90.70
2018-02-24T19:51:17.350Z,91.10
2018-02-24T19:53:44.883Z,90.60
2018-02-24T19:56:12.527Z,90.70
2018-02-24T19:58:40.065Z,91.10
2018-02-24T20:01:07.607Z,91.00
2018-02-24T20:03:35.951Z,91.30
2018-02-24T20:06:03.524Z,91.30
2018-02-24T20:08:31.062Z,91.00
2018-02-24T20:10:58.651Z,92.10
2018-02-24T20:13:26.207Z,91.30
2018-02-24T20:15:53.847Z,91.60
2018-02-24T20:18:21.397Z,91.10
2018-02-24T20:20:48.949Z,91.70
2018-02-24T20:23:17.267Z,91.80
2018-02-24T20:25:44.923Z,91.80
2018-02-24T20:28:12.450Z,92.20
2018-02-24T20:30:40.775Z,92.30
2018-02-24T20:33:08.350Z,92.30
2018-02-24T20:35:35.941Z,91.90
2018-02-24T20:38:03.495Z,92.40
2018-02-24T20:40:31.176Z,91.90
2018-02-24T20:42:58.711Z,92.20
2018-02-24T20:45:27.009Z,92.30
2018-02-24T20:47:54.624Z,92.30
2018-02-24T20:50:22.152Z,91.40
2018-02-24T20:52:49.709Z,91.90
2018-02-24T20:55:17.258Z,91.60
2018-02-24T20:57:44.807Z,91.50
2018-02-24T21:00:12.358Z,92.60
2018-02-24T21:02:39.915Z,91.90
2018-02-24T21:05:07.483Z,92.30
2018-02-24T21:07:35.013Z,92.10
2018-02-24T21:10:03.354Z,91.40
2018-02-24T21:12:30.943Z,91.40
2018-02-24T21:14:58.478Z,92.40
2018-02-24T21:17:26.033Z,91.70
2018-02-24T21:19:53.631Z,91.20
2018-02-24T21:22:21.193Z,91.80
2018-02-24T21:24:48.795Z,91.40
2018-02-24T21:27:17.108Z,91.60
2018-02-24T21:29:44.639Z,91.60
2018-02-24T21:32:12.959Z,92.40
2018-02-24T21:34:40.821Z,92.40
2018-02-24T21:37:08.382Z,91.90
2018-02-24T21:39:36.009Z,92.40
2018-02-24T21:42:04.304Z,93.40
2018-02-24T21:44:31.824Z,93.40
2018-02-24T21:46:59.621Z,93.60
2018-02-24T21:49:27.934Z,91.90
2018-02-24T21:51:55.466Z,91.90
2018-02-24T21:54:23.927Z,92.00
2018-02-24T21:56:51.462Z,92.00
2018-02-24T21:59:19.014Z,92.10
2018-02-24T22:01:46.593Z,91.80
2018-02-24T22:04:14.120Z,91.30
2018-02-24T22:06:41.668Z,91.00
2018-02-24T22:09:10.015Z,91.90
2018-02-24T22:11:37.586Z,91.90
2018-02-24T22:14:05.113Z,92.40
2018-02-24T22:16:32.704Z,91.90
2018-02-24T22:19:00.312Z,92.00
2018-02-24T22:21:28.627Z,93.40
2018-02-24T22:23:56.206Z,93.40
2018-02-24T22:26:23.814Z,92.60
2018-02-24T22:28:51.340Z,92.90
2018-02-24T22:31:18.914Z,93.60
2018-02-24T22:33:46.484Z,94.20
2018-02-24T22:36:14.070Z,95.40
2018-02-24T22:38:42.397Z,96.70
2018-02-24T22:41:09.925Z,96.70
2018-02-24T22:43:38.260Z,97.00
2018-02-24T22:46:06.755Z,97.00
2018-02-24T22:48:40.086Z,96.80
2018-02-24T22:51:07.689Z,97.50
2018-02-24T22:53:35.246Z,97.50
2018-02-24T22:56:02.788Z,97.10
2018-02-24T22:58:31.111Z,97.20
2018-02-24T23:00:58.634Z,97.10
2018-02-24T23:03:26.153Z,96.00
2018-02-24T23:05:53.712Z,95.80
2018-02-24T23:08:21.238Z,95.30
2018-02-24T23:10:48.767Z,95.10
2018-02-24T23:13:17.123Z,94.50
2018-02-24T23:15:44.693Z,94.40
2018-02-24T23:18:12.204Z,94.80
2018-02-24T23:20:39.760Z,94.30
2018-02-24T23:23:08.049Z,93.70
2018-02-24T23:25:35.581Z,93.70
2018-02-24T23:28:04.035Z,93.10
2018-02-24T23:30:31.588Z,93.10
2018-02-24T23:32:59.102Z,93.20
2018-02-24T23:35:27.440Z,92.90
2018-02-24T23:37:54.978Z,92.90
2018-02-24T23:40:22.513Z,93.10
2018-02-24T23:42:50.868Z,93.30
2018-02-24T23:45:18.458Z,93.20
2018-02-24T23:47:46.832Z,93.20
2018-02-24T23:50:15.142Z,93.40
2018-02-24T23:52:42.688Z,93.70
2018-02-24T23:55:10.982Z,93.50
2018-02-24T23:57:38.562Z,93.50
